Time;durP1;ratioP1;P1;durP2;ratioP2;P2;SDS_P1;SDS_P2;PMS_P1;PMS_P2;Temp;Humidity;BMP_temperature;BMP_pressure;BME280_temperature;BME280_humidity;BME280_pressure;Samples;Min_cycle;Max_cycle;Signal;HPM_P1;HPM_P2
2023/02/02 00:01:29;;;;;;;;;;;21.30;55.10;;;;;;1520148;77;745;-68
2023/02/02 00:03:31;;;;;;;;;;;21.30;55.10;;;;;;1521989;77;741;-68
2023/02/02 00:05:32;;;;;;;;;;;21.20;55.00;;;;;;1517238;77;1167;-68
2023/02/02 00:07:34;;;;;;;;;;;21.20;55.00;;;;;;1522241;77;710;-68
2023/02/02 00:09:36;;;;;;;;;;;21.20;54.90;;;;;;1522030;77;614;-68
2023/02/02 00:11:38;;;;;;;;;;;21.30;55.00;;;;;;1514468;77;809;-68
2023/02/02 00:13:40;;;;;;;;;;;21.30;55.00;;;;;;1517358;77;750;-69
2023/02/02 00:15:42;;;;;;;;;;;21.30;55.00;;;;;;1523026;77;1187;-69
2023/02/02 00:17:44;;;;;;;;;;;21.20;54.90;;;;;;1519288;77;1953;-68
2023/02/02 00:19:46;;;;;;;;;;;21.30;55.00;;;;;;1525761;77;722;-69
2023/02/02 00:21:47;;;;;;;;;;;21.30;54.90;;;;;;1533968;77;774;-69
2023/02/02 00:23:49;;;;;;;;;;;21.30;54.90;;;;;;1518435;77;714;-69
2023/02/02 00:25:51;;;;;;;;;;;21.30;55.00;;;;;;1522302;77;1092;-70
2023/02/02 00:27:53;;;;;;;;;;;21.30;54.90;;;;;;1513570;77;773;-69
2023/02/02 00:29:56;;;;;;;;;;;21.40;54.90;;;;;;1519332;77;754;-69
2023/02/02 00:31:58;;;;;;;;;;;21.40;54.90;;;;;;1521160;77;699;-69
2023/02/02 00:34:00;;;;;;;;;;;21.30;54.80;;;;;;1526406;77;726;-69
2023/02/02 00:36:01;;;;;;;;;;;21.40;54.80;;;;;;1532075;74;3044;-71
2023/02/02 00:38:03;;;;;;;;;;;21.30;54.80;;;;;;1560757;74;1946;-71
2023/02/02 00:40:06;;;;;;;;;;;21.40;54.70;;;;;;1570886;74;1023;-70
2023/02/02 00:42:09;;;;;;;;;;;21.40;54.80;;;;;;1571762;74;849;-71
2023/02/02 00:46:30;;;;;;;;;;;21.40;54.70;;;;;;1557966;75;1658;-70
2023/02/02 00:48:32;;;;;;;;;;;21.30;54.70;;;;;;1507957;77;853;-70
2023/02/02 00:50:34;;;;;;;;;;;21.30;54.90;;;;;;1545643;76;711;-70
2023/02/02 00:52:36;;;;;;;;;;;21.30;54.90;;;;;;1552874;76;691;-70
2023/02/02 00:54:37;;;;;;;;;;;21.30;55.00;;;;;;1551643;76;708;-72
2023/02/02 00:56:40;;;;;;;;;;;21.30;54.80;;;;;;1551043;76;1130;-70
2023/02/02 00:58:42;;;;;;;;;;;21.40;54.80;;;;;;1534281;76;1931;-70
2023/02/02 01:00:43;;;;;;;;;;;21.30;54.90;;;;;;1554442;76;722;-72
2023/02/02 01:02:45;;;;;;;;;;;21.30;55.20;;;;;;1542387;76;701;-71
2023/02/02 01:04:47;;;;;;;;;;;21.30;55.30;;;;;;1551196;76;722;-71
2023/02/02 01:06:49;;;;;;;;;;;21.10;55.30;;;;;;1535502;76;1124;-71
2023/02/02 01:08:51;;;;;;;;;;;21.10;55.30;;;;;;1539274;76;614;-70
2023/02/02 01:10:53;;;;;;;;;;;21.10;55.60;;;;;;1546651;76;730;-70
2023/02/02 01:12:55;;;;;;;;;;;21.30;55.60;;;;;;1542018;76;749;-69
2023/02/02 01:14:57;;;;;;;;;;;21.30;55.40;;;;;;1527698;76;725;-69
2023/02/02 01:16:58;;;;;;;;;;;21.30;55.30;;;;;;1536945;76;1127;-70
2023/02/02 01:19:00;;;;;;;;;;;21.30;55.20;;;;;;1524356;76;1939;-70
2023/02/02 01:21:07;;;;;;;;;;;21.40;55.10;;;;;;1525016;76;765;-69
2023/02/02 01:23:09;;;;;;;;;;;21.30;55.00;;;;;;1525508;76;1922;-70
2023/02/02 01:25:11;;;;;;;;;;;21.30;55.10;;;;;;1523839;76;1136;-70
2023/02/02 01:27:12;;;;;;;;;;;21.40;55.00;;;;;;1538917;76;693;-70
2023/02/02 01:29:14;;;;;;;;;;;21.40;55.00;;;;;;1528351;76;712;-70
2023/02/02 01:31:17;;;;;;;;;;;21.40;55.00;;;;;;1527455;76;732;-70
2023/02/02 01:33:19;;;;;;;;;;;21.40;55.00;;;;;;1534002;76;1591;-71
2023/02/02 01:35:21;;;;;;;;;;;21.40;55.00;;;;;;1537185;76;1166;-69
2023/02/02 01:37:23;;;;;;;;;;;21.50;55.20;;;;;;1531889;76;1931;-71
2023/02/02 01:39:25;;;;;;;;;;;21.50;55.10;;;;;;1530238;76;768;-69
2023/02/02 01:41:27;;;;;;;;;;;21.50;55.00;;;;;;1530887;76;727;-70
2023/02/02 01:43:43;;;;;;;;;;;21.40;55.00;;;;;;1530092;76;796;-71
2023/02/02 01:45:45;;;;;;;;;;;21.50;55.20;;;;;;1533802;76;1202;-70
2023/02/02 01:47:48;;;;;;;;;;;21.40;55.20;;;;;;1535066;76;675;-70
2023/02/02 01:49:50;;;;;;;;;;;21.40;55.20;;;;;;1527716;76;885;-70
2023/02/02 01:51:56;;;;;;;;;;;21.40;55.00;;;;;;1532450;76;726;-72
2023/02/02 01:53:58;;;;;;;;;;;21.40;55.00;;;;;;1539024;76;889;-69
2023/02/02 01:56:00;;;;;;;;;;;21.40;55.00;;;;;;1533904;76;1141;-71
2023/02/02 01:58:09;;;;;;;;;;;21.40;54.90;;;;;;1537296;76;1957;-71
2023/02/02 02:00:13;;;;;;;;;;;21.40;54.90;;;;;;1535175;76;732;-71
2023/02/02 02:02:15;;;;;;;;;;;21.30;54.80;;;;;;1526296;76;612;-70
2023/02/02 02:04:16;;;;;;;;;;;21.40;54.80;;;;;;1526940;76;757;-70
2023/02/02 02:06:18;;;;;;;;;;;21.40;54.90;;;;;;1526693;76;1108;-70
2023/02/02 02:08:24;;;;;;;;;;;21.40;54.80;;;;;;1530608;76;774;-70
2023/02/02 02:10:26;;;;;;;;;;;21.40;54.70;;;;;;1527217;76;932;-71
2023/02/02 02:12:27;;;;;;;;;;;21.40;54.80;;;;;;1530222;76;796;-71
2023/02/02 02:16:54;;;;;;;;;;;21.40;54.70;;;;;;1526218;76;1615;-70
2023/02/02 02:18:57;;;;;;;;;;;21.40;54.70;;;;;;1525728;76;1941;-71
2023/02/02 02:26:34;;;;;;;;;;;21.40;55.00;;;;;;1535307;76;1660;-71
2023/02/02 02:28:37;;;;;;;;;;;21.40;55.00;;;;;;1529320;76;1303;-70
2023/02/02 02:30:47;;;;;;;;;;;21.40;55.00;;;;;;1528259;76;1915;-72
2023/02/02 02:33:08;;;;;;;;;;;21.40;55.00;;;;;;1524378;76;680;-71
2023/02/02 02:35:21;;;;;;;;;;;21.30;54.90;;;;;;1469770;80;1169;-71
2023/02/02 02:37:30;;;;;;;;;;;21.30;55.00;;;;;;1466552;80;874;-69
2023/02/02 02:39:36;;;;;;;;;;;21.30;55.00;;;;;;1469421;80;955;-72
2023/02/02 02:41:39;;;;;;;;;;;21.40;55.00;;;;;;1539841;76;1939;-71
2023/02/02 02:43:43;;;;;;;;;;;21.30;55.00;;;;;;1521658;75;1790;-70
2023/02/02 02:45:45;;;;;;;;;;;21.40;54.90;;;;;;1508384;77;1187;-69
2023/02/02 02:47:46;;;;;;;;;;;21.40;54.90;;;;;;1520944;77;780;-72
2023/02/02 02:49:48;;;;;;;;;;;21.40;54.90;;;;;;1536178;76;789;-71
2023/02/02 02:51:51;;;;;;;;;;;21.40;54.80;;;;;;1536124;75;760;-71
2023/02/02 02:53:52;;;;;;;;;;;21.30;54.80;;;;;;1530612;76;685;-71
2023/02/02 02:56:05;;;;;;;;;;;21.40;54.70;;;;;;1499219;77;1145;-70
2023/02/02 02:58:09;;;;;;;;;;;21.40;54.70;;;;;;1508159;77;1980;-71
2023/02/02 03:00:30;;;;;;;;;;;21.50;54.80;;;;;;1508702;77;746;-70
2023/02/02 03:02:49;;;;;;;;;;;21.40;54.70;;;;;;1516098;77;2023;-71
2023/02/02 03:04:53;;;;;;;;;;;21.40;54.80;;;;;;1538639;75;1892;-70
2023/02/02 03:06:56;;;;;;;;;;;21.50;54.80;;;;;;1510300;77;1952;-70
2023/02/02 03:08:59;;;;;;;;;;;21.50;54.80;;;;;;1518774;77;776;-72
2023/02/02 03:11:01;;;;;;;;;;;21.40;54.80;;;;;;1513975;77;765;-70
2023/02/02 03:13:05;;;;;;;;;;;21.40;54.80;;;;;;1478026;78;873;-71
2023/02/02 03:15:07;;;;;;;;;;;21.40;54.90;;;;;;1524035;76;1152;-72
2023/02/02 03:17:09;;;;;;;;;;;21.40;54.80;;;;;;1505698;77;797;-69
2023/02/02 03:19:10;;;;;;;;;;;21.50;55.00;;;;;;1521236;77;1945;-70
2023/02/02 03:21:12;;;;;;;;;;;21.50;55.00;;;;;;1539535;76;777;-69
2023/02/02 03:23:14;;;;;;;;;;;21.50;55.00;;;;;;1533519;76;725;-71
2023/02/02 03:25:16;;;;;;;;;;;21.50;55.00;;;;;;1545008;76;1560;-72
2023/02/02 03:27:18;;;;;;;;;;;21.40;55.00;;;;;;1538297;76;699;-70
2023/02/02 03:29:20;;;;;;;;;;;21.40;54.90;;;;;;1536163;76;785;-71
2023/02/02 03:31:22;;;;;;;;;;;21.40;55.00;;;;;;1542309;76;744;-71
2023/02/02 03:33:24;;;;;;;;;;;21.40;55.10;;;;;;1539418;76;784;-70
2023/02/02 03:35:25;;;;;;;;;;;21.40;55.00;;;;;;1534686;76;1151;-70
2023/02/02 03:37:27;;;;;;;;;;;21.30;55.10;;;;;;1557230;76;791;-71
2023/02/02 03:39:29;;;;;;;;;;;21.30;55.10;;;;;;1540975;76;1920;-70
2023/02/02 03:41:31;;;;;;;;;;;21.30;55.20;;;;;;1535356;76;623;-70
2023/02/02 03:43:33;;;;;;;;;;;21.30;55.30;;;;;;1541689;76;783;-71
2023/02/02 03:45:36;;;;;;;;;;;21.30;55.30;;;;;;1542668;76;1113;-69
2023/02/02 03:47:38;;;;;;;;;;;21.20;55.40;;;;;;1551549;76;713;-69
2023/02/02 03:49:39;;;;;;;;;;;21.20;55.40;;;;;;1536242;76;733;-71
2023/02/02 03:51:43;;;;;;;;;;;21.10;55.60;;;;;;1529851;76;758;-69
2023/02/02 03:53:46;;;;;;;;;;;21.20;55.70;;;;;;1542611;76;713;-70
2023/02/02 03:55:48;;;;;;;;;;;21.10;55.80;;;;;;1559917;76;1173;-71
2023/02/02 03:57:50;;;;;;;;;;;21.10;55.80;;;;;;1539104;76;736;-70
2023/02/02 03:59:52;;;;;;;;;;;21.10;55.90;;;;;;1558977;76;1947;-70
2023/02/02 04:01:53;;;;;;;;;;;21.10;55.90;;;;;;1535316;76;751;-69
2023/02/02 04:03:56;;;;;;;;;;;21.10;55.70;;;;;;1541283;76;810;-70
2023/02/02 04:05:58;;;;;;;;;;;21.20;55.70;;;;;;1542455;76;1148;-71
2023/02/02 04:07:59;;;;;;;;;;;21.20;55.60;;;;;;1534758;76;795;-70
2023/02/02 04:10:01;;;;;;;;;;;21.30;55.60;;;;;;1532975;76;754;-70
2023/02/02 04:12:03;;;;;;;;;;;21.20;55.50;;;;;;1546811;76;698;-71
2023/02/02 04:14:06;;;;;;;;;;;21.10;55.60;;;;;;1538521;76;734;-70
2023/02/02 04:16:07;;;;;;;;;;;21.20;55.50;;;;;;1553209;76;1146;-70
2023/02/02 04:18:09;;;;;;;;;;;21.20;55.50;;;;;;1550993;76;1944;-71
2023/02/02 04:20:11;;;;;;;;;;;21.10;55.60;;;;;;1549197;76;726;-69
2023/02/02 04:22:13;;;;;;;;;;;21.30;55.80;;;;;;1533622;76;1702;-70
2023/02/02 04:24:15;;;;;;;;;;;21.20;55.60;;;;;;1544882;76;734;-68
2023/02/02 04:26:17;;;;;;;;;;;21.10;55.70;;;;;;1551200;76;1182;-70
2023/02/02 04:28:19;;;;;;;;;;;21.10;55.80;;;;;;1543995;76;758;-71
2023/02/02 04:30:21;;;;;;;;;;;21.20;55.90;;;;;;1547752;76;779;-70
2023/02/02 04:32:23;;;;;;;;;;;21.10;55.90;;;;;;1536125;76;717;-72
2023/02/02 04:34:24;;;;;;;;;;;21.10;55.80;;;;;;1521132;76;650;-69
2023/02/02 04:36:26;;;;;;;;;;;21.20;55.80;;;;;;1552584;76;1150;-68
2023/02/02 04:38:28;;;;;;;;;;;21.20;55.80;;;;;;1540625;76;1940;-67
2023/02/02 04:40:30;;;;;;;;;;;21.20;55.70;;;;;;1556393;76;836;-69
2023/02/02 04:42:33;;;;;;;;;;;21.20;55.90;;;;;;1537619;76;786;-67
2023/02/02 04:44:35;;;;;;;;;;;21.30;55.90;;;;;;1538200;76;789;-68
2023/02/02 04:46:37;;;;;;;;;;;21.30;55.90;;;;;;1543434;76;1121;-69
2023/02/02 04:48:43;;;;;;;;;;;21.30;55.60;;;;;;1529247;76;953;-69
2023/02/02 04:50:43;;;;;;;;;;;21.40;55.40;;;;;;1550469;76;801;-69
2023/02/02 04:52:44;;;;;;;;;;;21.30;55.40;;;;;;1542626;76;739;-67
2023/02/02 04:54:46;;;;;;;;;;;21.30;55.60;;;;;;1551884;76;652;-68
2023/02/02 04:56:48;;;;;;;;;;;21.40;55.50;;;;;;1533716;76;1120;-69
2023/02/02 04:58:52;;;;;;;;;;;21.40;55.30;;;;;;1537134;76;2090;-67
2023/02/02 05:00:54;;;;;;;;;;;21.40;55.30;;;;;;1532030;76;723;-67
2023/02/02 05:02:55;;;;;;;;;;;21.50;55.30;;;;;;1554844;76;714;-68
2023/02/02 05:04:57;;;;;;;;;;;21.50;55.10;;;;;;1528479;76;813;-69
2023/02/02 05:06:59;;;;;;;;;;;21.50;55.10;;;;;;1529975;76;1077;-66
2023/02/02 05:09:01;;;;;;;;;;;21.60;55.00;;;;;;1551406;76;785;-67
2023/02/02 05:11:07;;;;;;;;;;;21.60;55.00;;;;;;1557615;76;706;-68
2023/02/02 05:13:09;;;;;;;;;;;21.50;55.20;;;;;;1544232;76;720;-68
2023/02/02 05:15:10;;;;;;;;;;;21.50;55.00;;;;;;1543240;76;1152;-69
2023/02/02 05:17:12;;;;;;;;;;;21.60;55.00;;;;;;1540216;76;1464;-68
2023/02/02 05:19:15;;;;;;;;;;;21.60;54.90;;;;;;1534028;76;1939;-68
2023/02/02 05:21:17;;;;;;;;;;;21.70;54.80;;;;;;1539171;76;697;-70
2023/02/02 05:23:19;;;;;;;;;;;21.70;54.80;;;;;;1539887;76;776;-70
2023/02/02 05:25:21;;;;;;;;;;;21.70;54.70;;;;;;1556576;76;1197;-68
2023/02/02 05:27:23;;;;;;;;;;;21.70;54.80;;;;;;1544433;76;812;-68
2023/02/02 05:29:25;;;;;;;;;;;21.60;54.80;;;;;;1552345;76;735;-69
2023/02/02 05:31:27;;;;;;;;;;;21.50;55.00;;;;;;1550987;76;715;-69
2023/02/02 05:33:29;;;;;;;;;;;21.60;55.00;;;;;;1534510;76;708;-66
2023/02/02 05:35:30;;;;;;;;;;;21.60;54.90;;;;;;1550919;76;1077;-68
2023/02/02 05:37:32;;;;;;;;;;;21.60;54.90;;;;;;1538371;76;798;-69
2023/02/02 05:39:34;;;;;;;;;;;21.60;55.00;;;;;;1541101;76;1949;-69
2023/02/02 05:41:36;;;;;;;;;;;21.60;55.10;;;;;;1522025;76;715;-68
2023/02/02 05:43:38;;;;;;;;;;;21.60;54.80;;;;;;1521326;76;730;-67
2023/02/02 05:45:40;;;;;;;;;;;21.70;55.00;;;;;;1522084;76;1138;-69
2023/02/02 05:47:42;;;;;;;;;;;21.60;54.80;;;;;;1522230;76;613;-69
2023/02/02 05:49:43;;;;;;;;;;;21.60;55.00;;;;;;1527145;76;798;-68
2023/02/02 05:51:49;;;;;;;;;;;21.60;55.20;;;;;;1525910;76;772;-68
2023/02/02 05:53:51;;;;;;;;;;;21.70;55.00;;;;;;1535209;76;643;-68
2023/02/02 05:55:53;;;;;;;;;;;21.80;54.60;;;;;;1535462;76;1144;-68
2023/02/02 05:57:55;;;;;;;;;;;21.80;54.30;;;;;;1536575;76;726;-68
2023/02/02 05:59:57;;;;;;;;;;;21.80;54.20;;;;;;1532678;76;1937;-68
2023/02/02 06:01:59;;;;;;;;;;;21.80;54.00;;;;;;1524250;76;703;-68
2023/02/02 06:04:00;;;;;;;;;;;21.80;53.90;;;;;;1531344;76;769;-68
2023/02/02 06:06:02;;;;;;;;;;;21.80;53.80;;;;;;1530522;76;1104;-68
2023/02/02 06:08:04;;;;;;;;;;;21.80;53.60;;;;;;1527411;76;774;-68
2023/02/02 06:10:06;;;;;;;;;;;21.80;53.60;;;;;;1527189;76;745;-68
2023/02/02 06:12:08;;;;;;;;;;;21.80;53.60;;;;;;1528368;76;733;-68
2023/02/02 06:14:10;;;;;;;;;;;21.70;53.40;;;;;;1540687;76;1264;-67
2023/02/02 06:16:12;;;;;;;;;;;21.70;53.40;;;;;;1557241;76;1142;-68
2023/02/02 06:18:14;;;;;;;;;;;21.60;53.30;;;;;;1535221;76;750;-68
2023/02/02 06:20:16;;;;;;;;;;;21.60;53.40;;;;;;1542659;76;1951;-71
2023/02/02 06:22:18;;;;;;;;;;;21.70;53.40;;;;;;1543568;76;797;-68
2023/02/02 06:24:20;;;;;;;;;;;21.70;53.30;;;;;;1550314;76;773;-69
2023/02/02 06:26:21;;;;;;;;;;;21.60;53.20;;;;;;1533998;76;1151;-69
2023/02/02 06:28:23;;;;;;;;;;;21.50;53.40;;;;;;1547903;76;732;-68
2023/02/02 06:30:25;;;;;;;;;;;21.50;53.20;;;;;;1538797;76;706;-68
2023/02/02 06:32:30;;;;;;;;;;;21.50;53.40;;;;;;1546168;76;776;-69
2023/02/02 06:34:32;;;;;;;;;;;21.50;53.10;;;;;;1525598;76;720;-68
2023/02/02 06:36:34;;;;;;;;;;;21.50;53.40;;;;;;1552205;74;3061;-68
2023/02/02 06:38:36;;;;;;;;;;;21.50;53.60;;;;;;1561606;75;710;-63
2023/02/02 06:40:38;;;;;;;;;;;21.40;53.30;;;;;;1553446;75;1931;-68
2023/02/02 06:42:40;;;;;;;;;;;21.50;53.40;;;;;;1563250;75;726;-68
2023/02/02 06:44:41;;;;;;;;;;;21.60;52.80;;;;;;1558911;75;707;-67
2023/02/02 06:46:43;;;;;;;;;;;21.60;52.80;;;;;;1557905;75;1235;-67
2023/02/02 06:48:45;;;;;;;;;;;21.50;53.10;;;;;;1555742;75;805;-66
2023/02/02 06:50:47;;;;;;;;;;;21.50;53.10;;;;;;1554826;76;790;-68
2023/02/02 06:52:49;;;;;;;;;;;21.50;52.80;;;;;;1552977;76;796;-68
2023/02/02 06:54:51;;;;;;;;;;;21.40;53.00;;;;;;1547379;75;769;-67
2023/02/02 06:56:54;;;;;;;;;;;21.40;52.80;;;;;;1548616;76;1139;-67
2023/02/02 06:58:55;;;;;;;;;;;21.40;52.60;;;;;;1549990;76;824;-67
2023/02/02 07:01:03;;;;;;;;;;;21.40;52.60;;;;;;1536769;76;1949;-67
2023/02/02 07:03:05;;;;;;;;;;;21.30;52.60;;;;;;1548402;75;780;-67
2023/02/02 07:05:07;;;;;;;;;;;21.40;52.60;;;;;;1542167;76;720;-68
2023/02/02 07:07:09;;;;;;;;;;;21.40;52.60;;;;;;1543555;75;1095;-67
2023/02/02 07:09:10;;;;;;;;;;;21.30;52.80;;;;;;1529452;76;1600;-68
2023/02/02 07:11:12;;;;;;;;;;;21.40;52.70;;;;;;1545107;76;699;-68
2023/02/02 07:13:14;;;;;;;;;;;21.40;52.60;;;;;;1553654;75;763;-67
2023/02/02 07:15:16;;;;;;;;;;;21.40;52.60;;;;;;1540210;76;724;-69
2023/02/02 07:17:18;;;;;;;;;;;21.30;52.60;;;;;;1537918;76;1076;-68
2023/02/02 07:19:20;;;;;;;;;;;21.30;52.70;;;;;;1545323;75;1912;-69
2023/02/02 07:21:23;;;;;;;;;;;21.30;52.70;;;;;;1548154;75;716;-69
2023/02/02 07:23:24;;;;;;;;;;;21.30;52.80;;;;;;1547843;76;698;-68
2023/02/02 07:25:26;;;;;;;;;;;21.30;52.70;;;;;;1556741;75;704;-68
2023/02/02 07:27:28;;;;;;;;;;;21.30;52.70;;;;;;1552531;74;1159;-68
2023/02/02 07:29:30;;;;;;;;;;;21.20;52.60;;;;;;1558817;75;793;-68
2023/02/02 07:31:32;;;;;;;;;;;21.30;52.80;;;;;;1533115;75;636;-70
2023/02/02 07:33:38;;;;;;;;;;;21.20;52.60;;;;;;1531589;76;731;-69
2023/02/02 07:35:37;;;;;;;;;;;21.30;52.80;;;;;;1537076;75;1156;-68
2023/02/02 07:37:39;;;;;;;;;;;21.30;52.90;;;;;;1546607;76;800;-68
2023/02/02 07:39:42;;;;;;;;;;;21.30;52.80;;;;;;1540339;75;1952;-68
2023/02/02 07:41:44;;;;;;;;;;;21.30;52.70;;;;;;1547616;75;712;-68
2023/02/02 07:43:48;;;;;;;;;;;21.30;52.70;;;;;;1550096;76;713;-68
2023/02/02 07:45:50;;;;;;;;;;;21.30;52.60;;;;;;1551204;75;1170;-70
2023/02/02 07:47:56;;;;;;;;;;;21.40;52.60;;;;;;1550215;76;726;-70
2023/02/02 07:49:58;;;;;;;;;;;21.40;52.40;;;;;;1547733;76;676;-69
2023/02/02 07:51:59;;;;;;;;;;;21.40;52.40;;;;;;1552757;75;632;-70
2023/02/02 07:54:01;;;;;;;;;;;21.40;52.30;;;;;;1547055;75;636;-69
2023/02/02 07:56:10;;;;;;;;;;;21.30;52.30;;;;;;1546149;75;1084;-69
2023/02/02 07:58:12;;;;;;;;;;;21.50;52.50;;;;;;1549481;76;726;-69
2023/02/02 08:00:14;;;;;;;;;;;21.50;52.30;;;;;;1549951;75;1946;-69
2023/02/02 08:02:16;;;;;;;;;;;21.40;52.20;;;;;;1543288;76;723;-68
2023/02/02 08:04:18;;;;;;;;;;;21.40;52.10;;;;;;1551410;76;800;-69
2023/02/02 08:06:25;;;;;;;;;;;21.40;52.20;;;;;;1550284;76;1454;-69
2023/02/02 08:08:26;;;;;;;;;;;21.50;52.30;;;;;;1554137;76;720;-71
2023/02/02 08:10:28;;;;;;;;;;;21.40;52.20;;;;;;1552705;76;733;-69
2023/02/02 08:12:30;;;;;;;;;;;21.40;52.20;;;;;;1543339;76;740;-69
2023/02/02 08:14:32;;;;;;;;;;;21.40;52.30;;;;;;1544136;76;692;-70
2023/02/02 08:16:34;;;;;;;;;;;21.40;52.20;;;;;;1540250;75;1163;-69
2023/02/02 08:18:37;;;;;;;;;;;21.40;52.20;;;;;;1538532;76;750;-70
2023/02/02 08:20:39;;;;;;;;;;;21.30;52.30;;;;;;1535545;75;1922;-69
2023/02/02 08:22:41;;;;;;;;;;;21.30;52.20;;;;;;1552048;75;722;-69
2023/02/02 08:24:43;;;;;;;;;;;21.30;52.30;;;;;;1545715;75;739;-69
2023/02/02 08:26:45;;;;;;;;;;;21.30;52.40;;;;;;1555332;74;1145;-69
2023/02/02 08:28:47;;;;;;;;;;;21.20;52.30;;;;;;1555358;76;768;-69
2023/02/02 08:30:49;;;;;;;;;;;21.30;52.40;;;;;;1551626;76;802;-70
2023/02/02 08:32:51;;;;;;;;;;;21.20;52.30;;;;;;1547719;75;608;-70
2023/02/02 08:34:53;;;;;;;;;;;21.30;52.50;;;;;;1551021;76;742;-70
2023/02/02 08:36:55;;;;;;;;;;;21.20;52.50;;;;;;1529442;75;1193;-70
2023/02/02 08:39:00;;;;;;;;;;;21.20;52.50;;;;;;1543623;75;777;-69
2023/02/02 08:41:05;;;;;;;;;;;21.20;52.60;;;;;;1538217;75;1928;-69
2023/02/02 08:43:07;;;;;;;;;;;21.30;52.70;;;;;;1537550;75;793;-70
2023/02/02 08:45:09;;;;;;;;;;;21.30;52.60;;;;;;1558751;75;591;-68
2023/02/02 08:47:11;;;;;;;;;;;21.20;52.50;;;;;;1550163;75;1141;-69
2023/02/02 08:49:13;;;;;;;;;;;21.30;52.60;;;;;;1555164;76;706;-69
2023/02/02 08:51:16;;;;;;;;;;;21.30;52.60;;;;;;1549661;75;786;-69
2023/02/02 08:53:18;;;;;;;;;;;21.30;52.50;;;;;;1538174;76;722;-71
2023/02/02 08:55:19;;;;;;;;;;;21.30;52.60;;;;;;1556201;75;694;-69
2023/02/02 08:57:21;;;;;;;;;;;21.20;52.40;;;;;;1548312;75;1093;-69
2023/02/02 08:59:23;;;;;;;;;;;21.30;52.60;;;;;;1548546;75;685;-70
2023/02/02 09:01:25;;;;;;;;;;;21.20;52.40;;;;;;1545176;76;1951;-70
2023/02/02 09:03:27;;;;;;;;;;;21.20;52.40;;;;;;1553687;76;1554;-70
2023/02/02 09:05:29;;;;;;;;;;;21.20;52.50;;;;;;1554354;76;722;-71
2023/02/02 09:07:31;;;;;;;;;;;21.20;52.50;;;;;;1546043;75;1137;-69
2023/02/02 09:09:33;;;;;;;;;;;21.20;52.50;;;;;;1546195;76;622;-70
2023/02/02 09:11:35;;;;;;;;;;;21.20;52.40;;;;;;1546548;75;584;-69
2023/02/02 09:13:37;;;;;;;;;;;21.20;52.50;;;;;;1553492;76;766;-69
2023/02/02 09:15:39;;;;;;;;;;;21.30;52.60;;;;;;1551524;76;1103;-68
2023/02/02 09:17:40;;;;;;;;;;;21.20;52.50;;;;;;1548074;75;705;-68
2023/02/02 09:19:42;;;;;;;;;;;21.20;52.50;;;;;;1549405;76;705;-70
2023/02/02 09:21:44;;;;;;;;;;;21.20;52.50;;;;;;1552985;76;1933;-69
2023/02/02 09:23:46;;;;;;;;;;;21.30;52.60;;;;;;1549634;76;713;-69
2023/02/02 09:25:48;;;;;;;;;;;21.20;52.50;;;;;;1550939;75;1140;-68
2023/02/02 09:27:50;;;;;;;;;;;21.20;52.40;;;;;;1551267;76;659;-68
2023/02/02 09:29:52;;;;;;;;;;;21.20;52.50;;;;;;1552295;76;720;-68
2023/02/02 09:31:54;;;;;;;;;;;21.20;52.50;;;;;;1553166;76;717;-68
2023/02/02 09:33:57;;;;;;;;;;;21.20;52.50;;;;;;1538300;76;774;-69
2023/02/02 09:36:09;;;;;;;;;;;21.20;52.40;;;;;;1550982;75;1959;-69
2023/02/02 09:38:11;;;;;;;;;;;21.20;52.50;;;;;;1553437;75;802;-70
2023/02/02 09:40:16;;;;;;;;;;;21.30;52.60;;;;;;1545918;75;1934;-70
2023/02/02 09:42:31;;;;;;;;;;;21.20;52.40;;;;;;1547033;76;924;-69
2023/02/02 09:44:50;;;;;;;;;;;21.20;52.50;;;;;;1554602;76;735;-69
2023/02/02 09:46:54;;;;;;;;;;;21.30;52.60;;;;;;1546538;75;1123;-69
2023/02/02 09:48:57;;;;;;;;;;;21.30;52.60;;;;;;1544213;76;743;-69
2023/02/02 09:50:59;;;;;;;;;;;21.30;52.60;;;;;;1536871;76;769;-70
2023/02/02 09:53:02;;;;;;;;;;;21.30;52.50;;;;;;1551743;76;747;-69
2023/02/02 09:55:06;;;;;;;;;;;21.20;52.40;;;;;;1551999;75;781;-69
2023/02/02 09:57:25;;;;;;;;;;;21.20;52.50;;;;;;1538095;76;1700;-69
2023/02/02 09:59:28;;;;;;;;;;;21.20;52.30;;;;;;1554215;76;1677;-70
2023/02/02 10:01:35;;;;;;;;;;;21.30;52.40;;;;;;1539305;76;1965;-70
2023/02/02 10:03:39;;;;;;;;;;;21.30;52.40;;;;;;1545637;76;762;-70
2023/02/02 10:05:42;;;;;;;;;;;21.20;52.30;;;;;;1561126;74;1148;-69
2023/02/02 10:07:48;;;;;;;;;;;21.30;52.40;;;;;;1525524;76;1043;-70
2023/02/02 10:09:51;;;;;;;;;;;21.20;52.30;;;;;;1536964;76;618;-69
2023/02/02 10:12:00;;;;;;;;;;;21.20;52.30;;;;;;1556092;75;1010;-69
2023/02/02 10:14:04;;;;;;;;;;;21.20;52.30;;;;;;1551442;76;779;-69
2023/02/02 10:16:07;;;;;;;;;;;21.20;52.30;;;;;;1553123;75;1146;-69
2023/02/02 10:18:17;;;;;;;;;;;21.20;52.30;;;;;;1548061;75;744;-69
2023/02/02 10:20:20;;;;;;;;;;;21.20;52.40;;;;;;1550171;75;1897;-69
2023/02/02 10:22:24;;;;;;;;;;;21.20;52.30;;;;;;1549984;76;741;-69
2023/02/02 10:24:26;;;;;;;;;;;21.20;52.30;;;;;;1546869;76;1254;-69
2023/02/02 10:26:30;;;;;;;;;;;21.20;52.30;;;;;;1544078;75;1140;-69
2023/02/02 10:28:33;;;;;;;;;;;21.30;52.30;;;;;;1540560;76;956;-68
2023/02/02 10:30:43;;;;;;;;;;;21.30;52.40;;;;;;1540024;75;1111;-68
2023/02/02 10:32:49;;;;;;;;;;;21.20;52.10;;;;;;1546920;76;1609;-69
2023/02/02 10:35:08;;;;;;;;;;;21.20;52.30;;;;;;1549302;75;1997;-70
2023/02/02 10:37:14;;;;;;;;;;;21.20;52.20;;;;;;1540094;76;1131;-66
2023/02/02 10:39:18;;;;;;;;;;;21.20;52.20;;;;;;1519607;76;1102;-67
2023/02/02 10:41:24;;;;;;;;;;;21.20;52.20;;;;;;1526275;75;1938;-66
2023/02/02 10:43:45;;;;;;;;;;;21.30;52.30;;;;;;1553007;76;1838;-67
2023/02/02 10:45:47;;;;;;;;;;;21.30;52.30;;;;;;1553188;75;1240;-67
2023/02/02 10:47:49;;;;;;;;;;;21.30;52.30;;;;;;1545909;76;626;-70
2023/02/02 10:49:56;;;;;;;;;;;21.30;52.30;;;;;;1550343;76;597;-67
2023/02/02 10:52:02;;;;;;;;;;;21.20;52.20;;;;;;1525692;76;1190;-67
2023/02/02 10:54:04;;;;;;;;;;;21.20;52.10;;;;;;1549831;75;1467;-68
2023/02/02 10:56:10;;;;;;;;;;;21.40;52.10;;;;;;1549259;75;1170;-68
2023/02/02 10:58:12;;;;;;;;;;;21.30;52.10;;;;;;1554938;76;1748;-67
2023/02/02 11:00:22;;;;;;;;;;;21.40;52.10;;;;;;1555829;75;676;-72
2023/02/02 11:02:24;;;;;;;;;;;21.20;52.00;;;;;;1557101;75;1909;-68
2023/02/02 11:06:51;;;;;;;;;;;21.30;52.10;;;;;;1548581;75;1632;-69
2023/02/02 11:08:58;;;;;;;;;;;21.30;52.10;;;;;;1554168;76;596;-67
2023/02/02 11:11:01;;;;;;;;;;;21.40;52.30;;;;;;1549437;76;584;-68
2023/02/02 11:13:03;;;;;;;;;;;21.30;52.10;;;;;;1542985;76;1370;-68
2023/02/02 11:15:07;;;;;;;;;;;21.40;52.10;;;;;;1552063;75;763;-68
2023/02/02 11:17:10;;;;;;;;;;;21.30;52.20;;;;;;1528269;76;1665;-68
2023/02/02 11:19:20;;;;;;;;;;;21.40;52.10;;;;;;1546037;76;775;-68
2023/02/02 11:21:28;;;;;;;;;;;21.40;52.00;;;;;;1551416;75;1939;-68
2023/02/02 11:23:31;;;;;;;;;;;21.30;52.10;;;;;;1549905;75;810;-68
2023/02/02 11:25:36;;;;;;;;;;;21.30;52.00;;;;;;1553405;75;764;-68
2023/02/02 11:27:39;;;;;;;;;;;21.30;51.90;;;;;;1548666;75;849;-67
2023/02/02 11:29:43;;;;;;;;;;;21.40;51.80;;;;;;1554067;76;685;-68
2023/02/02 11:31:46;;;;;;;;;;;21.30;51.80;;;;;;1554496;75;641;-68
2023/02/02 11:33:47;;;;;;;;;;;21.30;51.80;;;;;;1545414;75;727;-69
2023/02/02 11:35:56;;;;;;;;;;;21.40;51.80;;;;;;1533259;76;1200;-69
2023/02/02 11:38:11;;;;;;;;;;;21.40;51.80;;;;;;1552401;75;1063;-68
2023/02/02 11:40:24;;;;;;;;;;;21.40;51.80;;;;;;1551872;75;2007;-68
2023/02/02 11:42:27;;;;;;;;;;;21.40;51.80;;;;;;1552562;76;1907;-68
2023/02/02 11:44:31;;;;;;;;;;;21.30;51.80;;;;;;1548319;76;556;-68
2023/02/02 11:46:33;;;;;;;;;;;21.30;51.80;;;;;;1556385;75;1164;-68
2023/02/02 11:48:36;;;;;;;;;;;21.40;51.80;;;;;;1518135;76;1217;-68
2023/02/02 11:50:38;;;;;;;;;;;21.30;51.80;;;;;;1549405;76;1459;-68
2023/02/02 11:52:39;;;;;;;;;;;21.30;51.80;;;;;;1557307;75;780;-68
2023/02/02 11:54:41;;;;;;;;;;;21.40;51.80;;;;;;1554803;76;712;-65
2023/02/02 11:56:45;;;;;;;;;;;21.40;51.90;;;;;;1513367;76;1096;-68
2023/02/02 11:58:54;;;;;;;;;;;21.40;51.80;;;;;;1552472;76;1785;-71
2023/02/02 12:01:00;;;;;;;;;;;21.40;51.80;;;;;;1546391;76;1907;-68
2023/02/02 12:03:02;;;;;;;;;;;21.40;51.80;;;;;;1549499;75;793;-68
2023/02/02 12:05:15;;;;;;;;;;;21.30;51.80;;;;;;1554340;75;724;-69
2023/02/02 12:07:18;;;;;;;;;;;21.30;51.80;;;;;;1552158;75;1134;-68
2023/02/02 12:09:23;;;;;;;;;;;21.40;51.80;;;;;;1553920;76;649;-68
2023/02/02 12:11:30;;;;;;;;;;;21.40;51.90;;;;;;1538489;76;654;-68
2023/02/02 12:13:33;;;;;;;;;;;21.40;51.80;;;;;;1551068;76;725;-68
2023/02/02 12:15:46;;;;;;;;;;;21.30;51.80;;;;;;1555266;75;1970;-68
2023/02/02 12:17:48;;;;;;;;;;;21.40;51.80;;;;;;1554058;76;1840;-67
2023/02/02 12:19:51;;;;;;;;;;;21.40;51.80;;;;;;1556968;76;671;-69
2023/02/02 12:21:55;;;;;;;;;;;21.40;51.70;;;;;;1549015;76;1936;-68
2023/02/02 12:24:08;;;;;;;;;;;21.40;51.70;;;;;;1548959;75;1776;-68
2023/02/02 12:26:12;;;;;;;;;;;21.40;51.60;;;;;;1550515;75;1078;-68
2023/02/02 12:28:24;;;;;;;;;;;21.40;51.70;;;;;;1551546;76;1945;-68